Data for 02/26/2015

Time Sea-Level Adjusted Pressure Absolute Pressure Temperature Relative Humidity Dew Point   
(mb) (inHg) (mb) (inHg) (C) (F) (%) (C) (F)
00:05 1022 30.18 852 25.16 -9.1 15.7 74 -12.9 8.8
00:10 1022 30.18 852 25.16 -9.1 15.7 74 -12.9 8.8
00:15 1022 30.18 851 25.13 -9.1 15.6 75 -12.8 9
00:20 1022 30.18 851 25.13 -9.1 15.6 76 -12.6 9.3
00:25 1022 30.18 851 25.13 -9.2 15.4 75 -12.8 8.9
00:30 1022 30.18 851 25.13 -9.3 15.2 76 -12.9 8.8
00:35 1022 30.18 851 25.13 -9.4 15 75 -13 8.5
00:40 1022 30.18 851 25.13 -9.5 15 76 -13 8.7
00:45 1022 30.18 851 25.13 -9.5 14.8 76 -13 8.6
00:50 1022 30.18 851 25.13 -9.6 14.8 76 -13.1 8.4
00:55 1022 30.18 851 25.13 -9.7 14.6 76 -13.2 8.3
01:00 1022 30.18 851 25.13 -9.7 14.6 75 -13.3 8.1
01:05 1022 30.18 851 25.13 -9.7 14.5 75 -13.3 8.1
01:10 1022 30.18 851 25.13 -9.7 14.5 75 -13.4 8
01:15 1022 30.18 851 25.13 -9.6 14.6 73 -13.6 7.5
01:20 1022 30.18 851 25.13 -9.7 14.6 72 -13.7 7.3
01:25 1022 30.18 851 25.13 -9.6 14.7 72 -13.7 7.3
01:30 1022 30.18 851 25.13 -9.6 14.7 72 -13.7 7.3
01:35 1022 30.18 851 25.13 -9.6 14.8 72 -13.8 7.2
01:40 1022 30.18 851 25.13 -9.5 14.9 72 -13.7 7.4
01:45 1022 30.18 851 25.13 -9.5 14.9 72 -13.6 7.5
01:50 1022 30.18 851 25.13 -9.4 15 72 -13.6 7.4
01:55 1022 30.18 851 25.13 -9.4 15 73 -13.5 7.7
02:00 1022 30.18 851 25.13 -9.5 15 72 -13.6 7.5
02:05 1022 30.18 851 25.13 -9.6 14.8 73 -13.5 7.7
02:10 1022 30.18 851 25.13 -9.6 14.7 74 -13.5 7.7
02:15 1022 30.18 851 25.13 -9.8 14.4 74 -13.5 7.6
02:20 1022 30.18 851 25.13 -9.9 14.1 74 -13.7 7.3
02:25 1022 30.18 851 25.13 -10.1 13.9 75 -13.7 7.4
02:30 1022 30.18 851 25.13 -10.1 13.8 74 -13.9 7
02:35 1022 30.18 851 25.13 -10.2 13.7 75 -13.8 7.1
02:40 1022 30.18 851 25.13 -10.3 13.5 75 -13.8 7.1
02:45 1022 30.18 851 25.13 -10.4 13.3 77 -13.6 7.5
02:50 1022 30.18 851 25.13 -10.5 13.2 78 -13.6 7.6
02:55 1022 30.18 851 25.13 -10.5 13 78 -13.6 7.5
03:00 1022 30.18 851 25.13 -10.6 13 78 -13.6 7.5
03:05 1022 30.18 851 25.13 -10.6 13 78 -13.7 7.3
03:10 1022 30.18 851 25.13 -10.6 13 77 -13.8 7.1
03:15 1022 30.18 851 25.13 -10.6 12.8 77 -13.9 7
03:20 1022 30.18 851 25.13 -10.7 12.8 76 -14.1 6.7
03:25 1022 30.18 851 25.13 -10.8 12.7 77 -14.1 6.7
03:30 1022 30.18 851 25.13 -10.8 12.5 77 -14.2 6.5
03:35 1022 30.18 851 25.13 -10.9 12.5 75 -14.5 5.9
03:40 1022 30.18 851 25.13 -10.9 12.4 74 -14.7 5.5
03:45 1022 30.18 851 25.13 -10.9 12.4 73 -14.9 5.2
03:50 1022 30.18 851 25.13 -10.9 12.4 73 -14.9 5.2
03:55 1022 30.18 851 25.13 -10.9 12.3 73 -14.8 5.3
04:00 1022 30.18 851 25.13 -11 12.2 73 -14.9 5.2
04:05 1022 30.18 851 25.13 -11.1 12 74 -14.9 5.1
04:10 1022 30.18 851 25.13 -11.2 11.9 74 -14.9 5.1
04:15 1022 30.18 851 25.13 -11.3 11.8 74 -15 5
04:20 1022 30.18 851 25.13 -11.3 11.6 73 -15.2 4.6
04:25 1021 30.15 851 25.13 -11.4 11.4 73 -15.4 4.4
04:30 1021 30.15 851 25.13 -11.5 11.3 74 -15.2 4.6
04:35 1021 30.15 851 25.13 -11.5 11.2 73 -15.4 4.3
04:40 1021 30.15 851 25.13 -11.6 11.2 73 -15.5 4
04:45 1021 30.15 851 25.13 -11.6 11.1 72 -15.7 3.8
04:50 1021 30.15 850 25.1 -11.7 11 73 -15.6 3.9
04:55 1021 30.15 851 25.13 -11.7 10.9 73 -15.7 3.8
05:00 1021 30.15 851 25.13 -11.8 10.8 73 -15.7 3.8
05:05 1021 30.15 851 25.13 -11.8 10.7 73 -15.7 3.8
05:10 1021 30.15 851 25.13 -11.9 10.6 74 -15.7 3.8
05:15 1021 30.15 850 25.1 -11.9 10.6 74 -15.6 3.9
05:20 1021 30.15 850 25.1 -11.9 10.6 74 -15.5 4
05:25 1021 30.15 850 25.1 -11.9 10.5 73 -15.8 3.6
05:30 1021 30.15 850 25.1 -11.9 10.5 74 -15.7 3.7
05:35 1021 30.15 850 25.1 -11.9 10.5 73 -15.8 3.5
05:40 1021 30.15 850 25.1 -11.9 10.5 72 -15.9 3.3
05:45 1021 30.15 850 25.1 -12 10.5 72 -16 3.2
05:50 1021 30.15 850 25.1 -12 10.3 72 -16 3.1
05:55 1021 30.15 850 25.1 -12 10.4 72 -16.1 3
06:00 1021 30.15 850 25.1 -11.9 10.5 71 -16.3 2.7
06:05 1021 30.15 851 25.13 -11.9 10.5 71 -16.1 3
06:10 1021 30.15 851 25.13 -12 10.5 71 -16.2 2.8
06:15 1021 30.15 851 25.13 -12 10.3 72 -16.1 3.1
06:20 1021 30.15 851 25.13 -12.1 10.2 74 -15.8 3.5
06:25 1021 30.15 851 25.13 -12.2 10.1 74 -15.9 3.4
06:30 1021 30.15 851 25.13 -12.2 10 73 -16 3.1
06:35 1021 30.15 851 25.13 -12.3 9.9 73 -16.2 2.8
06:40 1021 30.15 851 25.13 -12.3 9.8 73 -16.3 2.7
06:45 1022 30.18 851 25.13 -12.4 9.7 72 -16.4 2.4
06:50 1022 30.18 851 25.13 -12.5 9.6 72 -16.5 2.3
06:55 1021 30.15 851 25.13 -12.6 9.4 73 -16.5 2.3
07:00 1022 30.18 851 25.13 -12.7 9.2 73 -16.5 2.3
07:05 1022 30.18 851 25.13 -12.7 9.1 73 -16.6 2.1
07:10 1021 30.15 851 25.13 -12.7 9.1 72 -16.8 1.8
07:15 1021 30.15 851 25.13 -12.8 9 72 -16.8 1.8
07:20 1022 30.18 851 25.13 -12.8 9 72 -16.9 1.6
07:25 1021 30.15 851 25.13 -12.8 8.9 71 -17.1 1.2
07:30 1022 30.18 851 25.13 -12.8 8.9 70 -17.2 1.1
07:35 1022 30.18 851 25.13 -12.8 8.9 70 -17.2 1
07:40 1022 30.18 851 25.13 -12.9 8.7 70 -17.4 0.7
07:45 1022 30.18 851 25.13 -13 8.6 70 -17.3 0.8
07:50 1022 30.18 851 25.13 -13.2 8.3 71 -17.3 0.8
07:55 1022 30.18 851 25.13 -13.2 8.3 71 -17.5 0.6
08:00 1022 30.18 851 25.13 -13.2 8.2 71 -17.5 0.5
08:05 1022 30.18 851 25.13 -13.3 8 71 -17.5 0.5
08:10 1022 30.18 851 25.13 -13.4 7.9 71 -17.5 0.5
08:15 1022 30.18 851 25.13 -13.5 7.7 72 -17.5 0.4
08:20 1022 30.18 851 25.13 -13.5 7.7 72 -17.6 0.3
08:25 1022 30.18 851 25.13 -13.6 7.6 71 -17.7 0.2
08:30 1022 30.18 851 25.13 -13.6 7.5 72 -17.7 0.2
08:35 1022 30.18 851 25.13 -13.7 7.4 73 -17.6 0.3
08:40 1022 30.18 851 25.13 -13.6 7.6 72 -17.7 0.2
08:45 1022 30.18 851 25.13 -13.6 7.5 70 -17.9 -0.2
08:50 1022 30.18 851 25.13 -13.6 7.5 70 -18 -0.4
08:55 1022 30.18 851 25.13 -13.6 7.5 69 -18.1 -0.5
09:00 1022 30.18 851 25.13 -13.6 7.5 69 -18.2 -0.8
09:05 1022 30.18 851 25.13 -13.6 7.6 68 -18.3 -0.9
09:10 1022 30.18 851 25.13 -13.5 7.7 68 -18.2 -0.7
09:15 1022 30.18 851 25.13 -13.5 7.7 68 -18.2 -0.8
09:20 1022 30.18 851 25.13 -13.5 7.7 68 -18.2 -0.7
09:25 1022 30.18 851 25.13 -13.5 7.7 68 -18.3 -0.9
09:30 1022 30.18 851 25.13 -13.5 7.8 67 -18.4 -1.1
09:35 1022 30.18 851 25.13 -13.5 7.7 67 -18.4 -1.1
09:40 1022 30.18 851 25.13 -13.5 7.7 67 -18.4 -1.2
09:45 1022 30.18 851 25.13 -13.5 7.8 66 -18.4 -1.2
09:50 1022 30.18 851 25.13 -13.4 8 66 -18.4 -1.1
09:55 1022 30.18 851 25.13 -13.3 8 66 -18.4 -1.2
10:00 1022 30.18 851 25.13 -13.4 7.9 66 -18.4 -1
10:05 1022 30.18 851 25.13 -13.5 7.7 67 -18.4 -1.1
10:10 1022 30.18 851 25.13 -13.6 7.5 67 -18.4 -1.2
10:15 1022 30.18 851 25.13 -13.6 7.6 67 -18.4 -1.1
10:20 1022 30.18 851 25.13 -13.4 7.9 66 -18.4 -1.1
10:25 1022 30.18 851 25.13 -13.2 8.2 67 -18.2 -0.7
10:30 1022 30.18 851 25.13 -13 8.6 65 -18.3 -1
10:35 1022 30.18 851 25.13 -13 8.7 64 -18.4 -1.1
10:40 1022 30.18 851 25.13 -12.9 8.8 64 -18.3 -1
10:45 1022 30.18 851 25.13 -12.7 9.2 64 -18.2 -0.8
10:50 1022 30.18 851 25.13 -12.7 9.1 64 -18.2 -0.8
10:55 1022 30.18 851 25.13 -12.6 9.3 64 -18 -0.4
11:00 1022 30.18 851 25.13 -12.5 9.5 65 -17.8 -0.1
11:05 1022 30.18 851 25.13 -12.3 9.9 64 -17.7 0.1
11:10 1022 30.18 851 25.13 -12.4 9.7 64 -17.9 -0.3
11:15 1022 30.18 851 25.13 -12.3 9.8 63 -18 -0.4
11:20 1022 30.18 851 25.13 -12.2 10.1 62 -18 -0.4
11:25 1022 30.18 851 25.13 -11.7 10.9 60 -18.1 -0.6
11:30 1022 30.18 851 25.13 -11.7 11 60 -17.9 -0.3
11:35 1022 30.18 851 25.13 -11.4 11.4 59 -18 -0.4
11:40 1022 30.18 851 25.13 -11.5 11.3 60 -17.7 0.1
11:45 1022 30.18 851 25.13 -11.1 12 57 -18.1 -0.6
11:50 1022 30.18 851 25.13 -11.5 11.3 59 -17.9 -0.3
11:55 1022 30.18 851 25.13 -11.4 11.6 59 -17.9 -0.3
12:00 1022 30.18 851 25.13 -11 12.1 57 -18 -0.4
12:05 1022 30.18 851 25.13 -11 12.2 58 -17.7 0.1
12:10 1022 30.18 851 25.13 -10.9 12.4 55 -18.2 -0.8
12:15 1022 30.18 851 25.13 -10.8 12.6 56 -18 -0.3
12:20 1022 30.18 851 25.13 -10.6 13 55 -17.9 -0.3
12:25 1022 30.18 851 25.13 -10.7 12.7 54 -18.2 -0.8
12:30 1022 30.18 851 25.13 -10.8 12.5 55 -18.2 -0.7
12:35 1022 30.18 851 25.13 -10.5 13 56 -17.8 -0.1
12:40 1022 30.18 851 25.13 -10.5 13.1 56 -17.6 0.3
12:45 1022 30.18 851 25.13 -10.3 13.5 56 -17.5 0.5
12:50 1022 30.18 851 25.13 -10 14.1 54 -17.6 0.4
12:55 1022 30.18 851 25.13 -10.2 13.7 56 -17.4 0.7
13:00 1022 30.18 851 25.13 -10.1 13.7 55 -17.6 0.3
13:05 1022 30.18 851 25.13 -10.4 13.4 54 -17.9 -0.2
13:10 1022 30.18 851 25.13 -10.4 13.3 55 -17.8 -0.1
13:15 1022 30.18 851 25.13 -10.3 13.4 56 -17.5 0.4
13:20 1022 30.18 851 25.13 -10.1 13.9 56 -17.4 0.8
13:25 1021 30.15 851 25.13 -10.1 13.8 55 -17.4 0.6
13:30 1021 30.15 851 25.13 -10 14.1 54 -17.6 0.3
13:35 1021 30.15 850 25.1 -9.8 14.3 54 -17.4 0.6
13:40 1021 30.15 850 25.1 -9.8 14.4 54 -17.4 0.7
13:45 1021 30.15 850 25.1 -9.5 14.9 53 -17.4 0.6
13:50 1021 30.15 850 25.1 -9.4 15.1 52 -17.6 0.3
13:55 1021 30.15 850 25.1 -9.5 15 53 -17.4 0.7
14:00 1021 30.15 850 25.1 -8.8 16.1 51 -17.3 0.9
14:05 1021 30.15 850 25.1 -9 15.9 51 -17.3 0.9
14:10 1021 30.15 850 25.1 -9.1 15.6 54 -16.8 1.7
14:15 1021 30.15 850 25.1 -9 15.7 53 -16.9 1.6
14:20 1021 30.15 850 25.1 -8.8 16.2 53 -16.8 1.7
14:25 1021 30.15 850 25.1 -9.1 15.6 53 -16.9 1.5
14:30 1021 30.15 850 25.1 -9 15.8 54 -16.7 1.9
14:35 1021 30.15 850 25.1 -9.1 15.7 53 -17 1.4
14:40 1021 30.15 850 25.1 -8.9 16 54 -16.6 2.1
14:45 1020 30.12 850 25.1 -8.9 15.9 54 -16.6 2.1
14:50 1020 30.12 850 25.1 -8.8 16.1 55 -16.3 2.7
14:55 1020 30.12 850 25.1 -8.9 16 54 -16.7 2
15:00 1020 30.12 850 25.1 -9 15.8 55 -16.4 2.5
15:05 1020 30.12 849 25.07 -9.2 15.5 55 -16.7 2
15:10 1020 30.12 849 25.07 -9.2 15.5 54 -16.9 1.6
15:15 1020 30.12 849 25.07 -9.2 15.4 54 -16.9 1.5
15:20 1020 30.12 849 25.07 -9.3 15.3 54 -16.9 1.6
15:25 1020 30.12 849 25.07 -9.4 15.1 56 -16.6 2.2
15:30 1020 30.12 849 25.07 -9.2 15.5 54 -16.8 1.8
15:35 1020 30.12 849 25.07 -9 15.9 55 -16.5 2.2
15:40 1020 30.12 849 25.07 -9 15.7 55 -16.6 2.1
15:45 1020 30.12 849 25.07 -9.1 15.6 53 -16.9 1.5
15:50 1020 30.12 849 25.07 -9 15.8 55 -16.5 2.3
15:55 1020 30.12 849 25.07 -9 15.8 55 -16.5 2.3
16:00 1020 30.12 849 25.07 -9.1 15.6 55 -16.7 2
16:05 1020 30.12 849 25.07 -9.6 14.7 56 -16.8 1.8
16:10 1020 30.12 849 25.07 -9.5 14.9 55 -17.1 1.3
16:15 1020 30.12 849 25.07 -9.5 14.8 56 -16.9 1.6
16:20 1020 30.12 849 25.07 -9.4 15.1 56 -16.6 2.1
16:25 1020 30.12 849 25.07 -9.4 15 55 -16.9 1.6
16:30 1020 30.12 849 25.07 -9.4 15.1 54 -17 1.4
16:35 1020 30.12 849 25.07 -9 15.7 54 -16.8 1.7
16:40 1020 30.12 849 25.07 -9.3 15.3 54 -16.9 1.6
16:45 1020 30.12 849 25.07 -9.4 15 55 -16.8 1.7
16:50 1020 30.12 849 25.07 -9.5 15 57 -16.5 2.2
16:55 1020 30.12 849 25.07 -9.5 15 56 -16.7 1.9
17:00 1020 30.12 849 25.07 -9.5 14.9 55 -16.9 1.6
17:05 1020 30.12 849 25.07 -9.5 14.9 56 -16.8 1.8
17:10 1019 30.09 849 25.07 -9.4 15.1 55 -16.8 1.8
17:15 1019 30.09 849 25.07 -9.7 14.6 57 -16.8 1.8
17:20 1019 30.09 849 25.07 -9.8 14.5 58 -16.5 2.3
17:25 1019 30.09 849 25.07 -9.8 14.4 57 -16.8 1.7
17:30 1019 30.09 849 25.07 -10 14 59 -16.6 2.1
17:35 1019 30.09 848 25.04 -10.2 13.7 59 -16.8 1.8
17:40 1019 30.09 848 25.04 -10.3 13.5 60 -16.7 2
17:45 1019 30.09 848 25.04 -10.5 13.1 61 -16.7 2
17:50 1019 30.09 848 25.04 -10.7 12.8 62 -16.7 1.9
17:55 1019 30.09 848 25.04 -10.9 12.5 63 -16.6 2
18:00 1019 30.09 848 25.04 -10.9 12.4 63 -16.7 2
18:05 1019 30.09 848 25.04 -11 12.2 63 -16.7 1.9
18:10 1019 30.09 848 25.04 -11 12.1 63 -16.8 1.8
18:15 1019 30.09 848 25.04 -11.3 11.7 64 -16.8 1.8
18:20 1019 30.09 848 25.04 -11.3 11.6 64 -16.8 1.7
18:25 1019 30.09 848 25.04 -11.4 11.4 64 -16.9 1.6
18:30 1019 30.09 848 25.04 -11.6 11.1 65 -17 1.5
18:35 1019 30.09 848 25.04 -11.7 10.9 66 -16.9 1.6
18:40 1019 30.09 848 25.04 -11.9 10.6 66 -17 1.5
18:45 1019 30.09 848 25.04 -12.1 10.3 67 -17 1.4
18:50 1019 30.09 848 25.04 -12.2 10.1 67 -17.1 1.3
18:55 1019 30.09 848 25.04 -12.3 9.8 68 -17.1 1.2
19:00 1019 30.09 848 25.04 -12.5 9.5 69 -17.1 1.2
19:05 1019 30.09 848 25.04 -12.6 9.3 69 -17.1 1.2
19:10 1019 30.09 848 25.04 -12.7 9.1 70 -17.1 1.1
19:15 1019 30.09 848 25.04 -12.8 9 70 -17.2 1.1
19:20 1019 30.09 848 25.04 -12.9 8.9 70 -17.2 1
19:25 1019 30.09 848 25.04 -13 8.7 70 -17.3 0.9
19:30 1019 30.09 848 25.04 -13 8.7 70 -17.4 0.8
19:35 1019 30.09 848 25.04 -13 8.6 71 -17.3 0.9
19:40 1019 30.09 848 25.04 -13.1 8.5 71 -17.4 0.8
19:45 1019 30.09 848 25.04 -13.1 8.4 71 -17.3 0.8
19:50 1019 30.09 848 25.04 -13.2 8.3 72 -17.3 0.9
19:55 1019 30.09 848 25.04 -13.2 8.2 72 -17.3 0.9
20:00 1019 30.09 848 25.04 -13.2 8.2 72 -17.3 0.9
20:05 1018 30.06 848 25.04 -13.2 8.3 72 -17.2 1.1
20:10 1018 30.06 848 25.04 -13.3 8.1 72 -17.3 0.9
20:15 1018 30.06 848 25.04 -13.3 8.1 72 -17.3 0.9
20:20 1018 30.06 848 25.04 -13.3 8 72 -17.3 0.9
20:25 1018 30.06 848 25.04 -13.4 7.9 73 -17.3 0.8
20:30 1018 30.06 848 25.04 -13.4 7.9 73 -17.3 0.9
20:35 1018 30.06 848 25.04 -13.4 7.8 73 -17.3 0.8
20:40 1018 30.06 848 25.04 -13.5 7.8 73 -17.3 0.9
20:45 1018 30.06 848 25.04 -13.5 7.7 73 -17.3 0.8
20:50 1018 30.06 847 25.01 -13.5 7.7 73 -17.3 0.8
20:55 1018 30.06 847 25.01 -13.5 7.6 74 -17.3 0.9
21:00 1018 30.06 847 25.01 -13.5 7.7 74 -17.3 0.9
21:05 1018 30.06 847 25.01 -13.5 7.7 74 -17.3 0.9
21:10 1018 30.06 847 25.01 -13.5 7.7 74 -17.2 1
21:15 1018 30.06 847 25.01 -13.6 7.5 74 -17.3 0.9
21:20 1018 30.06 847 25.01 -13.6 7.5 75 -17.2 1
21:25 1018 30.06 847 25.01 -13.6 7.5 75 -17.2 1
21:30 1018 30.06 847 25.01 -13.7 7.4 75 -17.3 0.9
21:35 1018 30.06 847 25.01 -13.7 7.4 75 -17.3 0.9
21:40 1018 30.06 847 25.01 -13.7 7.3 75 -17.3 0.9
21:45 1018 30.06 847 25.01 -13.7 7.3 75 -17.3 0.9
21:50 1018 30.06 847 25.01 -13.7 7.3 75 -17.3 0.9
21:55 1018 30.06 847 25.01 -13.7 7.3 75 -17.3 0.9
22:00 1018 30.06 847 25.01 -13.8 7.2 75 -17.3 0.9
22:05 1018 30.06 847 25.01 -13.8 7.2 75 -17.3 0.8
22:10 1018 30.06 847 25.01 -13.8 7.2 75 -17.4 0.8
22:15 1018 30.06 847 25.01 -13.8 7.2 75 -17.3 0.8
22:20 1018 30.06 847 25.01 -13.8 7.1 75 -17.4 0.7
22:25 1018 30.06 847 25.01 -13.8 7.1 75 -17.4 0.6
22:30 1018 30.06 847 25.01 -13.9 7 74 -17.5 0.5
22:35 1018 30.06 847 25.01 -13.9 7 74 -17.5 0.5
22:40 1018 30.06 847 25.01 -13.9 6.9 74 -17.7 0.2
22:45 1018 30.06 847 25.01 -14 6.8 74 -17.6 0.3
22:50 1018 30.06 847 25.01 -14 6.9 74 -17.6 0.4
22:55 1017 30.03 847 25.01 -14 6.8 74 -17.7 0.1
23:00 1017 30.03 847 25.01 -14.1 6.6 75 -17.7 0.2
23:05 1017 30.03 847 25.01 -14.1 6.6 75 -17.7 0.2
23:10 1017 30.03 847 25.01 -14.1 6.6 74 -17.8 0
23:15 1017 30.03 847 25.01 -14.1 6.6 75 -17.7 0.1
23:20 1017 30.03 846 24.98 -14.2 6.4 75 -17.8 -0.1
23:25 1017 30.03 846 24.98 -14.2 6.4 75 -17.8 -0.1
23:30 1017 30.03 846 24.98 -14.3 6.3 75 -17.8 -0.1
23:35 1017 30.03 846 24.98 -14.3 6.3 75 -17.8 -0.1
23:40 1017 30.03 846 24.98 -14.3 6.3 75 -17.8 -0.1
23:45 1017 30.03 846 24.98 -14.3 6.2 75 -17.9 -0.2
23:50 1017 30.03 846 24.98 -14.3 6.2 75 -17.9 -0.2
23:55 1017 30.03 846 24.98 -14.4 6.1 75 -17.9 -0.2
24:00 1017 30.03 846 24.98 -14.4 6 75 -17.9 -0.2